sensor_id;sensor_type;location;lat;lon;timestamp;P1;durP1;ratioP1;P2;durP2;ratioP2
6392;SDS011;3229;42.674;23.282;2023-06-24T00:00:02;15.25;;;10.60;;
6392;SDS011;3229;42.674;23.282;2023-06-24T00:02:32;13.48;;;10.70;;
6392;SDS011;3229;42.674;23.282;2023-06-24T00:05:01;13.13;;;11.38;;
6392;SDS011;3229;42.674;23.282;2023-06-24T00:07:28;12.23;;;11.02;;
6392;SDS011;3229;42.674;23.282;2023-06-24T00:09:55;14.02;;;11.80;;
6392;SDS011;3229;42.674;23.282;2023-06-24T00:12:23;12.82;;;11.52;;
6392;SDS011;3229;42.674;23.282;2023-06-24T00:14:50;15.93;;;11.27;;
6392;SDS011;3229;42.674;23.282;2023-06-24T00:17:17;13.35;;;10.68;;
6392;SDS011;3229;42.674;23.282;2023-06-24T00:19:44;13.20;;;11.10;;
6392;SDS011;3229;42.674;23.282;2023-06-24T00:22:11;12.50;;;11.20;;
6392;SDS011;3229;42.674;23.282;2023-06-24T00:24:37;14.80;;;11.15;;
6392;SDS011;3229;42.674;23.282;2023-06-24T00:27:05;12.60;;;11.32;;
6392;SDS011;3229;42.674;23.282;2023-06-24T00:29:33;15.63;;;11.95;;
6392;SDS011;3229;42.674;23.282;2023-06-24T00:32:00;13.70;;;11.23;;
6392;SDS011;3229;42.674;23.282;2023-06-24T00:34:27;14.95;;;11.95;;
6392;SDS011;3229;42.674;23.282;2023-06-24T00:36:54;16.98;;;10.80;;
6392;SDS011;3229;42.674;23.282;2023-06-24T00:39:21;16.10;;;11.20;;
6392;SDS011;3229;42.674;23.282;2023-06-24T00:41:48;13.60;;;10.55;;
6392;SDS011;3229;42.674;23.282;2023-06-24T00:44:16;13.02;;;11.25;;
6392;SDS011;3229;42.674;23.282;2023-06-24T00:46:44;13.38;;;10.65;;
6392;SDS011;3229;42.674;23.282;2023-06-24T00:49:11;14.57;;;11.57;;
6392;SDS011;3229;42.674;23.282;2023-06-24T00:51:41;14.90;;;11.77;;
6392;SDS011;3229;42.674;23.282;2023-06-24T00:54:15;12.55;;;10.75;;
6392;SDS011;3229;42.674;23.282;2023-06-24T00:56:42;12.35;;;11.05;;
6392;SDS011;3229;42.674;23.282;2023-06-24T00:59:10;16.65;;;11.55;;
6392;SDS011;3229;42.674;23.282;2023-06-24T01:01:41;13.63;;;10.98;;
6392;SDS011;3229;42.674;23.282;2023-06-24T01:04:11;16.52;;;12.35;;
6392;SDS011;3229;42.674;23.282;2023-06-24T01:06:38;12.60;;;11.20;;
6392;SDS011;3229;42.674;23.282;2023-06-24T01:09:08;11.60;;;10.40;;
6392;SDS011;3229;42.674;23.282;2023-06-24T01:11:36;12.38;;;11.20;;
6392;SDS011;3229;42.674;23.282;2023-06-24T01:14:03;12.70;;;11.38;;
6392;SDS011;3229;42.674;23.282;2023-06-24T01:16:32;19.45;;;12.13;;
6392;SDS011;3229;42.674;23.282;2023-06-24T01:19:05;13.40;;;12.00;;
6392;SDS011;3229;42.674;23.282;2023-06-24T01:21:52;17.25;;;12.43;;
6392;SDS011;3229;42.674;23.282;2023-06-24T01:24:46;15.18;;;11.82;;
6392;SDS011;3229;42.674;23.282;2023-06-24T01:27:31;13.13;;;11.40;;
6392;SDS011;3229;42.674;23.282;2023-06-24T01:30:17;12.38;;;11.07;;
6392;SDS011;3229;42.674;23.282;2023-06-24T01:33:09;14.18;;;11.48;;
6392;SDS011;3229;42.674;23.282;2023-06-24T01:35:40;15.40;;;11.98;;
6392;SDS011;3229;42.674;23.282;2023-06-24T01:38:10;13.20;;;11.65;;
6392;SDS011;3229;42.674;23.282;2023-06-24T01:40:52;13.45;;;11.93;;
6392;SDS011;3229;42.674;23.282;2023-06-24T01:43:20;14.48;;;12.98;;
6392;SDS011;3229;42.674;23.282;2023-06-24T01:45:51;17.85;;;11.70;;
6392;SDS011;3229;42.674;23.282;2023-06-24T01:48:21;11.98;;;10.70;;
6392;SDS011;3229;42.674;23.282;2023-06-24T01:50:54;13.63;;;11.68;;
6392;SDS011;3229;42.674;23.282;2023-06-24T01:53:25;14.35;;;12.10;;
6392;SDS011;3229;42.674;23.282;2023-06-24T01:55:54;16.08;;;12.30;;
6392;SDS011;3229;42.674;23.282;2023-06-24T01:58:23;11.93;;;10.57;;
6392;SDS011;3229;42.674;23.282;2023-06-24T02:00:50;13.15;;;11.45;;
6392;SDS011;3229;42.674;23.282;2023-06-24T02:03:22;14.73;;;11.82;;
6392;SDS011;3229;42.674;23.282;2023-06-24T02:05:49;13.55;;;12.25;;
6392;SDS011;3229;42.674;23.282;2023-06-24T02:08:18;13.38;;;11.25;;
6392;SDS011;3229;42.674;23.282;2023-06-24T02:10:48;17.65;;;12.10;;
6392;SDS011;3229;42.674;23.282;2023-06-24T02:13:16;14.52;;;12.00;;
6392;SDS011;3229;42.674;23.282;2023-06-24T02:15:45;12.98;;;11.57;;
6392;SDS011;3229;42.674;23.282;2023-06-24T02:18:13;13.70;;;12.27;;
6392;SDS011;3229;42.674;23.282;2023-06-24T02:20:44;16.50;;;11.52;;
6392;SDS011;3229;42.674;23.282;2023-06-24T02:23:14;13.60;;;11.90;;
6392;SDS011;3229;42.674;23.282;2023-06-24T02:25:41;15.00;;;11.55;;
6392;SDS011;3229;42.674;23.282;2023-06-24T02:28:09;17.02;;;12.13;;
6392;SDS011;3229;42.674;23.282;2023-06-24T02:30:37;12.60;;;11.27;;
6392;SDS011;3229;42.674;23.282;2023-06-24T02:33:04;14.38;;;10.98;;
6392;SDS011;3229;42.674;23.282;2023-06-24T02:35:32;15.13;;;11.82;;
6392;SDS011;3229;42.674;23.282;2023-06-24T02:38:00;16.48;;;12.55;;
6392;SDS011;3229;42.674;23.282;2023-06-24T02:40:28;17.33;;;12.50;;
6392;SDS011;3229;42.674;23.282;2023-06-24T02:42:56;14.57;;;11.88;;
6392;SDS011;3229;42.674;23.282;2023-06-24T02:45:23;16.13;;;12.43;;
6392;SDS011;3229;42.674;23.282;2023-06-24T02:47:50;16.17;;;11.98;;
6392;SDS011;3229;42.674;23.282;2023-06-24T02:50:18;14.80;;;10.93;;
6392;SDS011;3229;42.674;23.282;2023-06-24T02:52:47;13.60;;;12.20;;
6392;SDS011;3229;42.674;23.282;2023-06-24T02:55:15;15.07;;;11.90;;
6392;SDS011;3229;42.674;23.282;2023-06-24T02:57:43;17.33;;;12.73;;
6392;SDS011;3229;42.674;23.282;2023-06-24T03:00:11;16.48;;;12.07;;
6392;SDS011;3229;42.674;23.282;2023-06-24T03:02:40;15.27;;;12.50;;
6392;SDS011;3229;42.674;23.282;2023-06-24T03:05:09;16.85;;;13.60;;
6392;SDS011;3229;42.674;23.282;2023-06-24T03:07:37;18.42;;;13.00;;
6392;SDS011;3229;42.674;23.282;2023-06-24T03:10:06;13.40;;;12.05;;
6392;SDS011;3229;42.674;23.282;2023-06-24T03:12:37;19.02;;;13.15;;
6392;SDS011;3229;42.674;23.282;2023-06-24T03:15:04;17.55;;;13.75;;
6392;SDS011;3229;42.674;23.282;2023-06-24T03:17:31;16.55;;;14.48;;
6392;SDS011;3229;42.674;23.282;2023-06-24T03:19:59;15.68;;;14.07;;
6392;SDS011;3229;42.674;23.282;2023-06-24T03:22:25;14.60;;;13.20;;
6392;SDS011;3229;42.674;23.282;2023-06-24T03:24:52;14.23;;;12.77;;
6392;SDS011;3229;42.674;23.282;2023-06-24T03:27:19;19.92;;;12.80;;
6392;SDS011;3229;42.674;23.282;2023-06-24T03:29:47;13.77;;;12.35;;
6392;SDS011;3229;42.674;23.282;2023-06-24T03:32:14;15.90;;;12.68;;
6392;SDS011;3229;42.674;23.282;2023-06-24T03:34:40;16.27;;;12.65;;
6392;SDS011;3229;42.674;23.282;2023-06-24T03:37:07;16.92;;;12.20;;
6392;SDS011;3229;42.674;23.282;2023-06-24T03:39:34;15.82;;;12.63;;
6392;SDS011;3229;42.674;23.282;2023-06-24T03:42:01;13.75;;;11.57;;
6392;SDS011;3229;42.674;23.282;2023-06-24T03:44:28;14.85;;;12.60;;
6392;SDS011;3229;42.674;23.282;2023-06-24T03:46:56;14.88;;;13.23;;
6392;SDS011;3229;42.674;23.282;2023-06-24T03:49:23;17.92;;;12.43;;
6392;SDS011;3229;42.674;23.282;2023-06-24T03:51:49;15.18;;;13.50;;
6392;SDS011;3229;42.674;23.282;2023-06-24T03:54:16;16.58;;;12.63;;
6392;SDS011;3229;42.674;23.282;2023-06-24T03:56:43;15.45;;;12.02;;
6392;SDS011;3229;42.674;23.282;2023-06-24T03:59:10;14.10;;;12.60;;
6392;SDS011;3229;42.674;23.282;2023-06-24T04:01:37;15.52;;;11.48;;
6392;SDS011;3229;42.674;23.282;2023-06-24T04:04:06;14.45;;;12.95;;
6392;SDS011;3229;42.674;23.282;2023-06-24T04:06:32;14.38;;;11.80;;
6392;SDS011;3229;42.674;23.282;2023-06-24T04:08:59;13.57;;;11.88;;
6392;SDS011;3229;42.674;23.282;2023-06-24T04:11:27;17.90;;;12.25;;
6392;SDS011;3229;42.674;23.282;2023-06-24T04:13:54;14.57;;;13.10;;
6392;SDS011;3229;42.674;23.282;2023-06-24T04:16:21;13.38;;;12.10;;
6392;SDS011;3229;42.674;23.282;2023-06-24T04:18:47;13.98;;;12.27;;
6392;SDS011;3229;42.674;23.282;2023-06-24T04:21:15;13.65;;;12.00;;
6392;SDS011;3229;42.674;23.282;2023-06-24T04:23:42;15.40;;;12.38;;
6392;SDS011;3229;42.674;23.282;2023-06-24T04:26:09;13.43;;;12.02;;
6392;SDS011;3229;42.674;23.282;2023-06-24T04:28:36;15.88;;;12.80;;
6392;SDS011;3229;42.674;23.282;2023-06-24T04:31:03;15.27;;;12.80;;
6392;SDS011;3229;42.674;23.282;2023-06-24T04:33:30;14.70;;;13.20;;
6392;SDS011;3229;42.674;23.282;2023-06-24T04:35:57;14.95;;;13.30;;
6392;SDS011;3229;42.674;23.282;2023-06-24T04:38:26;15.82;;;12.88;;
6392;SDS011;3229;42.674;23.282;2023-06-24T04:40:52;14.35;;;12.63;;
6392;SDS011;3229;42.674;23.282;2023-06-24T04:43:19;17.05;;;12.65;;
6392;SDS011;3229;42.674;23.282;2023-06-24T04:45:46;14.82;;;13.30;;
6392;SDS011;3229;42.674;23.282;2023-06-24T04:48:13;17.15;;;12.65;;
6392;SDS011;3229;42.674;23.282;2023-06-24T04:50:39;14.13;;;12.77;;
6392;SDS011;3229;42.674;23.282;2023-06-24T04:53:07;17.33;;;12.13;;
6392;SDS011;3229;42.674;23.282;2023-06-24T04:55:35;15.23;;;12.30;;
6392;SDS011;3229;42.674;23.282;2023-06-24T04:58:02;13.00;;;11.70;;
6392;SDS011;3229;42.674;23.282;2023-06-24T05:00:29;12.80;;;11.50;;
6392;SDS011;3229;42.674;23.282;2023-06-24T05:02:55;13.85;;;12.45;;
6392;SDS011;3229;42.674;23.282;2023-06-24T05:05:22;13.18;;;11.43;;
6392;SDS011;3229;42.674;23.282;2023-06-24T05:07:49;14.40;;;12.45;;
6392;SDS011;3229;42.674;23.282;2023-06-24T05:10:16;12.80;;;11.57;;
6392;SDS011;3229;42.674;23.282;2023-06-24T05:12:46;13.73;;;11.27;;
6392;SDS011;3229;42.674;23.282;2023-06-24T05:15:13;16.75;;;11.85;;
6392;SDS011;3229;42.674;23.282;2023-06-24T05:17:40;14.18;;;12.38;;
6392;SDS011;3229;42.674;23.282;2023-06-24T05:20:07;18.48;;;12.55;;
6392;SDS011;3229;42.674;23.282;2023-06-24T05:22:34;14.40;;;12.90;;
6392;SDS011;3229;42.674;23.282;2023-06-24T05:25:01;13.35;;;11.95;;
6392;SDS011;3229;42.674;23.282;2023-06-24T05:27:28;14.25;;;12.75;;
6392;SDS011;3229;42.674;23.282;2023-06-24T05:29:56;14.82;;;12.93;;
6392;SDS011;3229;42.674;23.282;2023-06-24T05:32:23;18.27;;;12.63;;
6392;SDS011;3229;42.674;23.282;2023-06-24T05:34:50;13.27;;;11.93;;
6392;SDS011;3229;42.674;23.282;2023-06-24T05:37:17;11.60;;;10.35;;
6392;SDS011;3229;42.674;23.282;2023-06-24T05:39:44;13.05;;;11.75;;
6392;SDS011;3229;42.674;23.282;2023-06-24T05:42:11;18.25;;;10.88;;
6392;SDS011;3229;42.674;23.282;2023-06-24T05:44:38;15.27;;;11.05;;
6392;SDS011;3229;42.674;23.282;2023-06-24T05:47:06;16.50;;;11.95;;
6392;SDS011;3229;42.674;23.282;2023-06-24T05:49:33;12.98;;;10.55;;
6392;SDS011;3229;42.674;23.282;2023-06-24T05:52:00;16.85;;;12.20;;
6392;SDS011;3229;42.674;23.282;2023-06-24T05:54:27;15.40;;;11.10;;
6392;SDS011;3229;42.674;23.282;2023-06-24T05:56:53;16.10;;;10.60;;
6392;SDS011;3229;42.674;23.282;2023-06-24T05:59:20;14.85;;;11.20;;
6392;SDS011;3229;42.674;23.282;2023-06-24T06:01:47;16.80;;;11.40;;
6392;SDS011;3229;42.674;23.282;2023-06-24T06:04:16;12.30;;;11.10;;
6392;SDS011;3229;42.674;23.282;2023-06-24T06:06:43;12.48;;;11.18;;
6392;SDS011;3229;42.674;23.282;2023-06-24T06:09:09;16.20;;;10.48;;
6392;SDS011;3229;42.674;23.282;2023-06-24T06:11:37;12.82;;;10.98;;
6392;SDS011;3229;42.674;23.282;2023-06-24T06:14:03;10.43;;;9.48;;
6392;SDS011;3229;42.674;23.282;2023-06-24T06:16:30;10.05;;;9.00;;
6392;SDS011;3229;42.674;23.282;2023-06-24T06:18:57;10.85;;;9.85;;
6392;SDS011;3229;42.674;23.282;2023-06-24T06:21:25;11.27;;;10.10;;
6392;SDS011;3229;42.674;23.282;2023-06-24T06:23:52;13.98;;;9.63;;
6392;SDS011;3229;42.674;23.282;2023-06-24T06:26:19;12.90;;;9.68;;
6392;SDS011;3229;42.674;23.282;2023-06-24T06:28:46;10.88;;;9.77;;
6392;SDS011;3229;42.674;23.282;2023-06-24T06:31:13;11.13;;;9.93;;
6392;SDS011;3229;42.674;23.282;2023-06-24T06:33:40;11.05;;;10.05;;
6392;SDS011;3229;42.674;23.282;2023-06-24T06:36:07;11.55;;;9.63;;
6392;SDS011;3229;42.674;23.282;2023-06-24T06:38:35;12.13;;;9.90;;
6392;SDS011;3229;42.674;23.282;2023-06-24T06:41:02;10.30;;;8.98;;
6392;SDS011;3229;42.674;23.282;2023-06-24T06:43:29;12.00;;;9.88;;
6392;SDS011;3229;42.674;23.282;2023-06-24T06:45:55;10.57;;;9.52;;
6392;SDS011;3229;42.674;23.282;2023-06-24T06:48:22;15.57;;;9.82;;
6392;SDS011;3229;42.674;23.282;2023-06-24T06:50:50;13.45;;;9.20;;
6392;SDS011;3229;42.674;23.282;2023-06-24T06:53:18;11.63;;;9.80;;
6392;SDS011;3229;42.674;23.282;2023-06-24T06:55:46;13.10;;;9.20;;
6392;SDS011;3229;42.674;23.282;2023-06-24T06:58:13;14.95;;;10.38;;
6392;SDS011;3229;42.674;23.282;2023-06-24T07:00:42;13.15;;;9.98;;
6392;SDS011;3229;42.674;23.282;2023-06-24T07:03:09;11.30;;;10.15;;
6392;SDS011;3229;42.674;23.282;2023-06-24T07:05:36;10.93;;;9.68;;
6392;SDS011;3229;42.674;23.282;2023-06-24T07:08:03;12.50;;;9.93;;
6392;SDS011;3229;42.674;23.282;2023-06-24T07:10:31;11.98;;;10.63;;
6392;SDS011;3229;42.674;23.282;2023-06-24T07:13:00;11.45;;;10.25;;
6392;SDS011;3229;42.674;23.282;2023-06-24T07:15:27;11.32;;;10.18;;
6392;SDS011;3229;42.674;23.282;2023-06-24T07:17:54;12.70;;;9.48;;
6392;SDS011;3229;42.674;23.282;2023-06-24T07:20:21;14.52;;;10.40;;
6392;SDS011;3229;42.674;23.282;2023-06-24T07:22:48;12.05;;;9.57;;
6392;SDS011;3229;42.674;23.282;2023-06-24T07:25:15;13.30;;;10.65;;
6392;SDS011;3229;42.674;23.282;2023-06-24T07:27:42;12.52;;;10.38;;
6392;SDS011;3229;42.674;23.282;2023-06-24T07:30:10;11.35;;;9.30;;
6392;SDS011;3229;42.674;23.282;2023-06-24T07:32:37;11.93;;;9.60;;
6392;SDS011;3229;42.674;23.282;2023-06-24T07:35:04;12.82;;;10.10;;
6392;SDS011;3229;42.674;23.282;2023-06-24T07:37:32;14.52;;;10.60;;
6392;SDS011;3229;42.674;23.282;2023-06-24T07:39:58;10.68;;;9.77;;
6392;SDS011;3229;42.674;23.282;2023-06-24T07:42:25;14.60;;;9.80;;
6392;SDS011;3229;42.674;23.282;2023-06-24T07:44:52;16.83;;;10.00;;
6392;SDS011;3229;42.674;23.282;2023-06-24T07:47:20;11.15;;;9.70;;
6392;SDS011;3229;42.674;23.282;2023-06-24T07:49:47;11.00;;;9.63;;
6392;SDS011;3229;42.674;23.282;2023-06-24T07:52:14;10.98;;;9.95;;
6392;SDS011;3229;42.674;23.282;2023-06-24T07:54:41;11.00;;;9.85;;
6392;SDS011;3229;42.674;23.282;2023-06-24T07:57:07;11.93;;;10.65;;
6392;SDS011;3229;42.674;23.282;2023-06-24T07:59:34;11.07;;;9.52;;
6392;SDS011;3229;42.674;23.282;2023-06-24T08:02:01;13.05;;;10.52;;
6392;SDS011;3229;42.674;23.282;2023-06-24T08:04:30;10.95;;;9.82;;
6392;SDS011;3229;42.674;23.282;2023-06-24T08:06:57;14.85;;;10.35;;
6392;SDS011;3229;42.674;23.282;2023-06-24T08:09:24;14.32;;;9.48;;
6392;SDS011;3229;42.674;23.282;2023-06-24T08:11:51;10.10;;;9.05;;
6392;SDS011;3229;42.674;23.282;2023-06-24T08:14:18;9.88;;;8.98;;
6392;SDS011;3229;42.674;23.282;2023-06-24T08:16:44;11.60;;;10.55;;
6392;SDS011;3229;42.674;23.282;2023-06-24T08:19:11;11.77;;;10.10;;
6392;SDS011;3229;42.674;23.282;2023-06-24T08:21:40;12.60;;;9.75;;
6392;SDS011;3229;42.674;23.282;2023-06-24T08:24:07;12.05;;;10.00;;
6392;SDS011;3229;42.674;23.282;2023-06-24T08:26:33;13.02;;;10.55;;
6392;SDS011;3229;42.674;23.282;2023-06-24T08:29:00;11.20;;;10.10;;
6392;SDS011;3229;42.674;23.282;2023-06-24T08:31:27;12.35;;;10.25;;
6392;SDS011;3229;42.674;23.282;2023-06-24T08:33:54;16.40;;;11.13;;
6392;SDS011;3229;42.674;23.282;2023-06-24T08:36:26;13.52;;;11.43;;
6392;SDS011;3229;42.674;23.282;2023-06-24T08:38:55;11.57;;;10.38;;
6392;SDS011;3229;42.674;23.282;2023-06-24T08:41:22;11.68;;;10.30;;
6392;SDS011;3229;42.674;23.282;2023-06-24T08:43:51;11.52;;;10.43;;
6392;SDS011;3229;42.674;23.282;2023-06-24T08:46:18;11.27;;;10.18;;
6392;SDS011;3229;42.674;23.282;2023-06-24T08:48:47;10.77;;;9.73;;
6392;SDS011;3229;42.674;23.282;2023-06-24T08:51:17;14.13;;;10.55;;
6392;SDS011;3229;42.674;23.282;2023-06-24T08:53:46;13.38;;;10.77;;
6392;SDS011;3229;42.674;23.282;2023-06-24T08:56:15;11.45;;;10.00;;
6392;SDS011;3229;42.674;23.282;2023-06-24T08:58:43;12.63;;;10.27;;
6392;SDS011;3229;42.674;23.282;2023-06-24T09:01:10;10.90;;;9.88;;
6392;SDS011;3229;42.674;23.282;2023-06-24T09:03:37;11.40;;;10.23;;
6392;SDS011;3229;42.674;23.282;2023-06-24T09:06:04;11.63;;;10.43;;
6392;SDS011;3229;42.674;23.282;2023-06-24T09:08:31;12.02;;;10.43;;
6392;SDS011;3229;42.674;23.282;2023-06-24T09:11:00;12.15;;;10.45;;
6392;SDS011;3229;42.674;23.282;2023-06-24T09:13:34;11.27;;;10.13;;
6392;SDS011;3229;42.674;23.282;2023-06-24T09:16:09;11.38;;;9.63;;
6392;SDS011;3229;42.674;23.282;2023-06-24T09:18:38;13.18;;;10.30;;
6392;SDS011;3229;42.674;23.282;2023-06-24T09:21:05;12.38;;;10.82;;
6392;SDS011;3229;42.674;23.282;2023-06-24T09:23:35;11.88;;;9.35;;
6392;SDS011;3229;42.674;23.282;2023-06-24T09:26:03;13.32;;;10.27;;
6392;SDS011;3229;42.674;23.282;2023-06-24T09:28:30;12.52;;;10.63;;
6392;SDS011;3229;42.674;23.282;2023-06-24T09:31:08;11.45;;;9.93;;
6392;SDS011;3229;42.674;23.282;2023-06-24T09:33:35;15.85;;;10.43;;
6392;SDS011;3229;42.674;23.282;2023-06-24T09:36:02;11.20;;;9.90;;
6392;SDS011;3229;42.674;23.282;2023-06-24T09:38:34;11.40;;;9.70;;
6392;SDS011;3229;42.674;23.282;2023-06-24T09:41:02;11.00;;;9.85;;
6392;SDS011;3229;42.674;23.282;2023-06-24T09:43:30;11.90;;;9.40;;
6392;SDS011;3229;42.674;23.282;2023-06-24T09:45:57;13.10;;;10.65;;
6392;SDS011;3229;42.674;23.282;2023-06-24T09:48:25;11.02;;;8.88;;
6392;SDS011;3229;42.674;23.282;2023-06-24T09:50:52;11.75;;;9.77;;
6392;SDS011;3229;42.674;23.282;2023-06-24T09:53:20;12.85;;;9.45;;
6392;SDS011;3229;42.674;23.282;2023-06-24T09:55:48;11.20;;;10.02;;
6392;SDS011;3229;42.674;23.282;2023-06-24T09:58:15;11.20;;;10.07;;
6392;SDS011;3229;42.674;23.282;2023-06-24T10:00:43;14.02;;;9.93;;
6392;SDS011;3229;42.674;23.282;2023-06-24T10:03:10;11.38;;;10.38;;
6392;SDS011;3229;42.674;23.282;2023-06-24T10:05:39;10.90;;;9.82;;
6392;SDS011;3229;42.674;23.282;2023-06-24T10:08:08;11.73;;;9.88;;
6392;SDS011;3229;42.674;23.282;2023-06-24T10:10:36;15.13;;;9.73;;
6392;SDS011;3229;42.674;23.282;2023-06-24T10:13:03;14.10;;;9.65;;
6392;SDS011;3229;42.674;23.282;2023-06-24T10:15:31;11.25;;;9.95;;
6392;SDS011;3229;42.674;23.282;2023-06-24T10:18:00;12.80;;;9.02;;
6392;SDS011;3229;42.674;23.282;2023-06-24T10:20:28;14.68;;;8.73;;
6392;SDS011;3229;42.674;23.282;2023-06-24T10:22:56;12.52;;;9.35;;
6392;SDS011;3229;42.674;23.282;2023-06-24T10:25:24;9.73;;;8.82;;
6392;SDS011;3229;42.674;23.282;2023-06-24T10:28:01;9.65;;;8.38;;
6392;SDS011;3229;42.674;23.282;2023-06-24T10:30:29;10.32;;;8.73;;
6392;SDS011;3229;42.674;23.282;2023-06-24T10:32:57;13.40;;;8.55;;
6392;SDS011;3229;42.674;23.282;2023-06-24T10:35:24;13.00;;;8.23;;
6392;SDS011;3229;42.674;23.282;2023-06-24T10:37:55;9.95;;;8.25;;
6392;SDS011;3229;42.674;23.282;2023-06-24T10:40:36;11.52;;;8.35;;
6392;SDS011;3229;42.674;23.282;2023-06-24T10:43:23;13.90;;;8.88;;
6392;SDS011;3229;42.674;23.282;2023-06-24T10:45:52;10.18;;;8.70;;
6392;SDS011;3229;42.674;23.282;2023-06-24T10:48:19;11.43;;;8.45;;
6392;SDS011;3229;42.674;23.282;2023-06-24T10:50:46;14.02;;;8.18;;
6392;SDS011;3229;42.674;23.282;2023-06-24T10:53:16;8.63;;;7.68;;
6392;SDS011;3229;42.674;23.282;2023-06-24T10:55:45;9.38;;;8.43;;
6392;SDS011;3229;42.674;23.282;2023-06-24T10:58:13;9.13;;;8.27;;
6392;SDS011;3229;42.674;23.282;2023-06-24T11:00:41;12.00;;;7.88;;
6392;SDS011;3229;42.674;23.282;2023-06-24T11:03:11;8.27;;;7.47;;
6392;SDS011;3229;42.674;23.282;2023-06-24T11:05:40;11.88;;;6.80;;
6392;SDS011;3229;42.674;23.282;2023-06-24T11:08:08;8.10;;;7.30;;
6392;SDS011;3229;42.674;23.282;2023-06-24T11:10:43;8.88;;;8.07;;
6392;SDS011;3229;42.674;23.282;2023-06-24T11:13:11;9.73;;;7.25;;
6392;SDS011;3229;42.674;23.282;2023-06-24T11:15:38;8.57;;;7.43;;
6392;SDS011;3229;42.674;23.282;2023-06-24T11:18:07;8.82;;;7.10;;
6392;SDS011;3229;42.674;23.282;2023-06-24T11:20:35;8.30;;;6.97;;
6392;SDS011;3229;42.674;23.282;2023-06-24T11:23:02;10.18;;;7.65;;
6392;SDS011;3229;42.674;23.282;2023-06-24T11:25:37;11.48;;;7.43;;
6392;SDS011;3229;42.674;23.282;2023-06-24T11:28:07;7.95;;;7.25;;
6392;SDS011;3229;42.674;23.282;2023-06-24T11:30:39;10.98;;;7.35;;
6392;SDS011;3229;42.674;23.282;2023-06-24T11:33:05;8.05;;;7.25;;
6392;SDS011;3229;42.674;23.282;2023-06-24T11:35:33;8.50;;;7.70;;
6392;SDS011;3229;42.674;23.282;2023-06-24T11:38:01;10.80;;;8.23;;
6392;SDS011;3229;42.674;23.282;2023-06-24T11:40:28;10.05;;;6.80;;
6392;SDS011;3229;42.674;23.282;2023-06-24T11:42:57;8.70;;;7.10;;
6392;SDS011;3229;42.674;23.282;2023-06-24T11:45:25;10.30;;;7.60;;
6392;SDS011;3229;42.674;23.282;2023-06-24T11:47:52;8.05;;;6.95;;
6392;SDS011;3229;42.674;23.282;2023-06-24T11:50:25;8.32;;;7.32;;
6392;SDS011;3229;42.674;23.282;2023-06-24T11:52:53;7.20;;;6.57;;
6392;SDS011;3229;42.674;23.282;2023-06-24T11:55:21;8.43;;;7.63;;
6392;SDS011;3229;42.674;23.282;2023-06-24T11:57:49;7.63;;;6.85;;
6392;SDS011;3229;42.674;23.282;2023-06-24T12:00:19;7.60;;;6.90;;
6392;SDS011;3229;42.674;23.282;2023-06-24T12:02:50;7.47;;;6.75;;
6392;SDS011;3229;42.674;23.282;2023-06-24T12:05:25;8.35;;;6.13;;
6392;SDS011;3229;42.674;23.282;2023-06-24T12:07:54;7.97;;;7.18;;
6392;SDS011;3229;42.674;23.282;2023-06-24T12:10:22;8.25;;;7.30;;
6392;SDS011;3229;42.674;23.282;2023-06-24T12:12:49;7.28;;;6.60;;
6392;SDS011;3229;42.674;23.282;2023-06-24T12:15:16;7.95;;;6.57;;
6392;SDS011;3229;42.674;23.282;2023-06-24T12:17:43;6.60;;;6.00;;
6392;SDS011;3229;42.674;23.282;2023-06-24T12:20:11;8.07;;;6.28;;
6392;SDS011;3229;42.674;23.282;2023-06-24T12:22:39;7.32;;;5.80;;
6392;SDS011;3229;42.674;23.282;2023-06-24T12:25:06;7.63;;;6.75;;
6392;SDS011;3229;42.674;23.282;2023-06-24T12:27:34;7.97;;;6.68;;
6392;SDS011;3229;42.674;23.282;2023-06-24T12:30:01;7.00;;;6.38;;
6392;SDS011;3229;42.674;23.282;2023-06-24T12:32:27;10.10;;;6.93;;
6392;SDS011;3229;42.674;23.282;2023-06-24T12:34:54;7.05;;;6.35;;
6392;SDS011;3229;42.674;23.282;2023-06-24T12:37:22;8.20;;;7.13;;
6392;SDS011;3229;42.674;23.282;2023-06-24T12:39:49;7.80;;;6.45;;
6392;SDS011;3229;42.674;23.282;2023-06-24T12:42:17;7.57;;;6.60;;
6392;SDS011;3229;42.674;23.282;2023-06-24T12:44:45;7.30;;;6.60;;
6392;SDS011;3229;42.674;23.282;2023-06-24T12:47:12;7.43;;;6.68;;
6392;SDS011;3229;42.674;23.282;2023-06-24T12:49:39;9.07;;;7.25;;
6392;SDS011;3229;42.674;23.282;2023-06-24T12:52:06;7.45;;;6.75;;
6392;SDS011;3229;42.674;23.282;2023-06-24T12:54:35;8.80;;;6.30;;
6392;SDS011;3229;42.674;23.282;2023-06-24T12:57:02;7.72;;;6.72;;
6392;SDS011;3229;42.674;23.282;2023-06-24T12:59:29;8.20;;;7.45;;
6392;SDS011;3229;42.674;23.282;2023-06-24T13:01:56;7.63;;;6.63;;
6392;SDS011;3229;42.674;23.282;2023-06-24T13:04:22;7.57;;;6.88;;
6392;SDS011;3229;42.674;23.282;2023-06-24T13:06:50;6.70;;;6.20;;
6392;SDS011;3229;42.674;23.282;2023-06-24T13:09:17;7.88;;;7.07;;
6392;SDS011;3229;42.674;23.282;2023-06-24T13:11:46;7.65;;;6.95;;
6392;SDS011;3229;42.674;23.282;2023-06-24T13:14:13;12.68;;;9.55;;
6392;SDS011;3229;42.674;23.282;2023-06-24T13:16:41;8.57;;;7.78;;
6392;SDS011;3229;42.674;23.282;2023-06-24T13:19:08;8.73;;;7.28;;
6392;SDS011;3229;42.674;23.282;2023-06-24T13:21:35;12.95;;;8.07;;
6392;SDS011;3229;42.674;23.282;2023-06-24T13:24:02;13.68;;;8.07;;
6392;SDS011;3229;42.674;23.282;2023-06-24T13:26:29;14.18;;;8.10;;
6392;SDS011;3229;42.674;23.282;2023-06-24T13:28:57;12.05;;;8.30;;
6392;SDS011;3229;42.674;23.282;2023-06-24T13:31:24;16.35;;;7.75;;
6392;SDS011;3229;42.674;23.282;2023-06-24T13:33:51;14.48;;;7.82;;
6392;SDS011;3229;42.674;23.282;2023-06-24T13:36:31;10.23;;;7.38;;
6392;SDS011;3229;42.674;23.282;2023-06-24T13:39:00;14.48;;;7.43;;
6392;SDS011;3229;42.674;23.282;2023-06-24T13:41:27;18.73;;;5.97;;
6392;SDS011;3229;42.674;23.282;2023-06-24T13:43:58;18.40;;;7.53;;
6392;SDS011;3229;42.674;23.282;2023-06-24T13:46:26;20.13;;;7.43;;
6392;SDS011;3229;42.674;23.282;2023-06-24T13:48:53;14.38;;;5.72;;
6392;SDS011;3229;42.674;23.282;2023-06-24T13:51:20;12.13;;;6.15;;
6392;SDS011;3229;42.674;23.282;2023-06-24T13:53:48;21.50;;;7.30;;
6392;SDS011;3229;42.674;23.282;2023-06-24T13:56:16;15.98;;;6.45;;
6392;SDS011;3229;42.674;23.282;2023-06-24T13:58:43;20.58;;;6.32;;
6392;SDS011;3229;42.674;23.282;2023-06-24T14:01:11;23.30;;;6.40;;
6392;SDS011;3229;42.674;23.282;2023-06-24T14:03:38;25.75;;;6.40;;
6392;SDS011;3229;42.674;23.282;2023-06-24T14:06:05;15.23;;;6.68;;
6392;SDS011;3229;42.674;23.282;2023-06-24T14:08:32;12.15;;;5.47;;
6392;SDS011;3229;42.674;23.282;2023-06-24T14:11:00;11.00;;;5.25;;
6392;SDS011;3229;42.674;23.282;2023-06-24T14:13:28;14.18;;;6.15;;
6392;SDS011;3229;42.674;23.282;2023-06-24T14:15:56;10.60;;;4.88;;
6392;SDS011;3229;42.674;23.282;2023-06-24T14:18:24;9.50;;;5.10;;
6392;SDS011;3229;42.674;23.282;2023-06-24T14:20:51;9.80;;;4.88;;
6392;SDS011;3229;42.674;23.282;2023-06-24T14:23:19;11.25;;;5.05;;
6392;SDS011;3229;42.674;23.282;2023-06-24T14:25:48;11.70;;;5.57;;
6392;SDS011;3229;42.674;23.282;2023-06-24T14:28:15;5.80;;;4.68;;
6392;SDS011;3229;42.674;23.282;2023-06-24T14:30:42;11.63;;;5.15;;
6392;SDS011;3229;42.674;23.282;2023-06-24T14:33:11;12.98;;;4.28;;
6392;SDS011;3229;42.674;23.282;2023-06-24T14:35:39;9.88;;;5.88;;
6392;SDS011;3229;42.674;23.282;2023-06-24T14:38:07;10.18;;;5.47;;
6392;SDS011;3229;42.674;23.282;2023-06-24T14:40:34;12.40;;;5.70;;
6392;SDS011;3229;42.674;23.282;2023-06-24T14:43:01;10.27;;;5.75;;
6392;SDS011;3229;42.674;23.282;2023-06-24T14:45:27;10.18;;;6.63;;
6392;SDS011;3229;42.674;23.282;2023-06-24T14:47:54;14.23;;;5.25;;